LDSB/BWK METAR and TAF weather

Enter ICAO airport designator
Station Type Date Time Source
LDSB METAR 2020/09/26 18:00 UTC NOAA

LDSB 261800Z 26006KT 9999 BKN028 10/08 Q1000


Station Type Date Time Source
LDSB Decoded METAR 2020/09/26 18:00 UTC NOAA

Brac, Croatia (LDSB) 43-17-09N 016-40-47E
Sep 26, 2020 - 02:00 PM EDT / 2020.09.26 1800 UTC
Wind: from the W (260 degrees) at 7 MPH (6 KT):0
Visibility: greater than 7 mile(s):0
Sky conditions: mostly cloudy
Temperature: 50 F (10 C)
Dew Point: 46 F (8 C)
Relative Humidity: 87%
Pressure (altimeter): 29.53 in. Hg (1000 hPa)
ob: LDSB 261800Z 26006KT 9999 BKN028 10/08 Q1000
cycle: 18

Station Type Date Time Source
LDSB TAF 2020/09/26 19:06 UTC NOAA

TAF
AMD LDSB 261902Z 2619/2712 CNL

Example: see airport list